sensor_id;sensor_type;location;lat;lon;timestamp;temperature;humidity
77039;DHT22;65970;50.476;4.840;2023-07-24T00:02:13;21.70;26.80
77039;DHT22;65970;50.476;4.840;2023-07-24T00:07:14;21.70;26.50
77039;DHT22;65970;50.476;4.840;2023-07-24T00:12:14;21.70;26.70
77039;DHT22;65970;50.476;4.840;2023-07-24T00:17:15;21.70;26.60
77039;DHT22;65970;50.476;4.840;2023-07-24T00:22:16;21.70;26.30
77039;DHT22;65970;50.476;4.840;2023-07-24T00:27:16;21.70;26.50
77039;DHT22;65970;50.476;4.840;2023-07-24T00:32:17;21.70;26.40
77039;DHT22;65970;50.476;4.840;2023-07-24T00:37:17;21.70;26.40
77039;DHT22;65970;50.476;4.840;2023-07-24T00:42:18;21.60;26.00
77039;DHT22;65970;50.476;4.840;2023-07-24T00:47:18;21.60;26.70
77039;DHT22;65970;50.476;4.840;2023-07-24T00:52:19;21.60;26.00
77039;DHT22;65970;50.476;4.840;2023-07-24T00:57:20;21.60;26.10
77039;DHT22;65970;50.476;4.840;2023-07-24T01:02:21;21.60;27.10
77039;DHT22;65970;50.476;4.840;2023-07-24T01:07:22;21.60;26.50
77039;DHT22;65970;50.476;4.840;2023-07-24T01:18:13;21.50;27.30
77039;DHT22;65970;50.476;4.840;2023-07-24T01:23:37;21.50;26.10
77039;DHT22;65970;50.476;4.840;2023-07-24T01:28:38;21.60;28.00
77039;DHT22;65970;50.476;4.840;2023-07-24T01:33:40;21.50;27.90
77039;DHT22;65970;50.476;4.840;2023-07-24T01:38:41;21.50;27.10
77039;DHT22;65970;50.476;4.840;2023-07-24T01:43:43;21.50;27.00
77039;DHT22;65970;50.476;4.840;2023-07-24T01:48:43;21.50;26.90
77039;DHT22;65970;50.476;4.840;2023-07-24T01:53:44;21.40;27.40
77039;DHT22;65970;50.476;4.840;2023-07-24T01:58:44;21.50;27.60
77039;DHT22;65970;50.476;4.840;2023-07-24T02:03:45;21.50;27.00
77039;DHT22;65970;50.476;4.840;2023-07-24T02:08:45;21.50;27.00
77039;DHT22;65970;50.476;4.840;2023-07-24T02:13:46;21.40;27.40
77039;DHT22;65970;50.476;4.840;2023-07-24T02:18:47;21.40;28.40
77039;DHT22;65970;50.476;4.840;2023-07-24T02:23:47;21.40;27.60
77039;DHT22;65970;50.476;4.840;2023-07-24T02:28:48;21.40;27.80
77039;DHT22;65970;50.476;4.840;2023-07-24T02:33:48;21.30;28.00
77039;DHT22;65970;50.476;4.840;2023-07-24T02:38:49;21.30;27.80
77039;DHT22;65970;50.476;4.840;2023-07-24T02:43:49;21.30;27.50
77039;DHT22;65970;50.476;4.840;2023-07-24T02:48:51;21.30;28.00
77039;DHT22;65970;50.476;4.840;2023-07-24T02:53:53;21.30;27.40
77039;DHT22;65970;50.476;4.840;2023-07-24T02:58:54;21.30;27.90
77039;DHT22;65970;50.476;4.840;2023-07-24T03:03:54;21.30;28.90
77039;DHT22;65970;50.476;4.840;2023-07-24T03:08:55;21.30;27.80
77039;DHT22;65970;50.476;4.840;2023-07-24T03:13:55;21.30;27.70
77039;DHT22;65970;50.476;4.840;2023-07-24T03:18:56;21.30;27.40
77039;DHT22;65970;50.476;4.840;2023-07-24T03:23:56;21.30;28.60
77039;DHT22;65970;50.476;4.840;2023-07-24T03:28:57;21.20;28.10
77039;DHT22;65970;50.476;4.840;2023-07-24T03:33:57;21.20;27.80
77039;DHT22;65970;50.476;4.840;2023-07-24T03:38:58;21.20;27.60
77039;DHT22;65970;50.476;4.840;2023-07-24T03:43:58;21.20;27.70
77039;DHT22;65970;50.476;4.840;2023-07-24T03:48:59;21.20;29.00
77039;DHT22;65970;50.476;4.840;2023-07-24T03:54:00;21.10;27.40
77039;DHT22;65970;50.476;4.840;2023-07-24T03:59:00;21.10;28.00
77039;DHT22;65970;50.476;4.840;2023-07-24T04:04:01;21.10;28.30
77039;DHT22;65970;50.476;4.840;2023-07-24T04:09:01;21.10;28.90
77039;DHT22;65970;50.476;4.840;2023-07-24T04:14:02;21.10;28.10
77039;DHT22;65970;50.476;4.840;2023-07-24T04:19:03;21.00;28.20
77039;DHT22;65970;50.476;4.840;2023-07-24T04:24:04;21.00;29.00
77039;DHT22;65970;50.476;4.840;2023-07-24T04:29:04;21.00;28.60
77039;DHT22;65970;50.476;4.840;2023-07-24T04:34:05;21.00;27.70
77039;DHT22;65970;50.476;4.840;2023-07-24T04:39:05;21.00;29.70
77039;DHT22;65970;50.476;4.840;2023-07-24T04:44:06;21.00;29.80
77039;DHT22;65970;50.476;4.840;2023-07-24T04:49:06;21.00;29.20
77039;DHT22;65970;50.476;4.840;2023-07-24T04:54:07;21.00;29.50
77039;DHT22;65970;50.476;4.840;2023-07-24T04:59:08;20.90;28.80
77039;DHT22;65970;50.476;4.840;2023-07-24T05:04:08;20.90;28.90
77039;DHT22;65970;50.476;4.840;2023-07-24T05:09:09;20.90;30.40
77039;DHT22;65970;50.476;4.840;2023-07-24T05:14:10;20.90;29.90
77039;DHT22;65970;50.476;4.840;2023-07-24T05:19:10;20.90;29.90
77039;DHT22;65970;50.476;4.840;2023-07-24T05:24:11;20.90;31.40
77039;DHT22;65970;50.476;4.840;2023-07-24T05:29:11;20.90;30.20
77039;DHT22;65970;50.476;4.840;2023-07-24T05:34:12;20.90;30.00
77039;DHT22;65970;50.476;4.840;2023-07-24T05:39:12;20.90;28.90
77039;DHT22;65970;50.476;4.840;2023-07-24T05:44:13;20.80;30.20
77039;DHT22;65970;50.476;4.840;2023-07-24T05:49:13;20.80;30.90
77039;DHT22;65970;50.476;4.840;2023-07-24T05:54:14;20.80;30.30
77039;DHT22;65970;50.476;4.840;2023-07-24T05:59:15;20.80;30.00
77039;DHT22;65970;50.476;4.840;2023-07-24T06:04:15;20.80;29.70
77039;DHT22;65970;50.476;4.840;2023-07-24T06:09:16;20.80;30.40
77039;DHT22;65970;50.476;4.840;2023-07-24T06:14:16;20.80;29.70
77039;DHT22;65970;50.476;4.840;2023-07-24T06:19:17;20.80;30.60
77039;DHT22;65970;50.476;4.840;2023-07-24T06:24:17;20.80;30.30
77039;DHT22;65970;50.476;4.840;2023-07-24T06:29:18;20.80;29.60
77039;DHT22;65970;50.476;4.840;2023-07-24T06:34:18;20.70;29.70
77039;DHT22;65970;50.476;4.840;2023-07-24T06:39:19;20.80;29.60
77039;DHT22;65970;50.476;4.840;2023-07-24T06:44:19;20.80;29.70
77039;DHT22;65970;50.476;4.840;2023-07-24T06:49:20;20.80;31.00
77039;DHT22;65970;50.476;4.840;2023-07-24T06:54:20;20.70;29.40
77039;DHT22;65970;50.476;4.840;2023-07-24T06:59:21;20.80;29.50
77039;DHT22;65970;50.476;4.840;2023-07-24T07:04:22;20.80;29.60
77039;DHT22;65970;50.476;4.840;2023-07-24T07:09:22;20.70;29.00
77039;DHT22;65970;50.476;4.840;2023-07-24T07:14:23;20.80;29.00
77039;DHT22;65970;50.476;4.840;2023-07-24T07:19:23;20.80;29.10
77039;DHT22;65970;50.476;4.840;2023-07-24T07:24:24;20.80;30.30
77039;DHT22;65970;50.476;4.840;2023-07-24T07:29:24;20.80;30.10
77039;DHT22;65970;50.476;4.840;2023-07-24T07:34:25;20.80;29.90
77039;DHT22;65970;50.476;4.840;2023-07-24T07:39:25;20.90;31.10
77039;DHT22;65970;50.476;4.840;2023-07-24T07:44:26;20.90;30.00
77039;DHT22;65970;50.476;4.840;2023-07-24T07:49:26;20.90;32.00
77039;DHT22;65970;50.476;4.840;2023-07-24T07:54:27;20.90;29.10
77039;DHT22;65970;50.476;4.840;2023-07-24T07:59:27;21.00;31.30
77039;DHT22;65970;50.476;4.840;2023-07-24T08:04:28;21.00;31.50
77039;DHT22;65970;50.476;4.840;2023-07-24T08:09:29;21.00;31.20
77039;DHT22;65970;50.476;4.840;2023-07-24T08:14:30;21.00;30.70
77039;DHT22;65970;50.476;4.840;2023-07-24T08:19:30;21.10;31.80
77039;DHT22;65970;50.476;4.840;2023-07-24T08:24:34;21.10;30.90
77039;DHT22;65970;50.476;4.840;2023-07-24T08:29:34;21.10;30.40
77039;DHT22;65970;50.476;4.840;2023-07-24T08:34:35;21.10;29.90
77039;DHT22;65970;50.476;4.840;2023-07-24T08:39:36;21.20;30.60
77039;DHT22;65970;50.476;4.840;2023-07-24T08:44:37;21.10;30.40
77039;DHT22;65970;50.476;4.840;2023-07-24T08:49:39;21.10;30.00
77039;DHT22;65970;50.476;4.840;2023-07-24T08:54:39;21.20;30.10
77039;DHT22;65970;50.476;4.840;2023-07-24T08:59:40;21.20;30.00
77039;DHT22;65970;50.476;4.840;2023-07-24T09:04:40;21.20;29.90
77039;DHT22;65970;50.476;4.840;2023-07-24T09:09:41;21.20;30.60
77039;DHT22;65970;50.476;4.840;2023-07-24T09:14:42;21.20;30.70
77039;DHT22;65970;50.476;4.840;2023-07-24T09:19:42;21.20;31.10
77039;DHT22;65970;50.476;4.840;2023-07-24T09:29:50;21.20;31.50
77039;DHT22;65970;50.476;4.840;2023-07-24T09:34:52;21.20;31.70
77039;DHT22;65970;50.476;4.840;2023-07-24T09:39:53;21.30;30.50
77039;DHT22;65970;50.476;4.840;2023-07-24T09:44:53;21.30;30.80
77039;DHT22;65970;50.476;4.840;2023-07-24T09:49:54;21.40;30.30
77039;DHT22;65970;50.476;4.840;2023-07-24T09:55:10;21.40;30.90
77039;DHT22;65970;50.476;4.840;2023-07-24T10:00:12;21.50;32.80
77039;DHT22;65970;50.476;4.840;2023-07-24T10:05:13;21.50;30.00
77039;DHT22;65970;50.476;4.840;2023-07-24T10:10:15;21.60;30.00
77039;DHT22;65970;50.476;4.840;2023-07-24T10:15:15;21.70;32.00
77039;DHT22;65970;50.476;4.840;2023-07-24T10:20:17;21.60;30.90
77039;DHT22;65970;50.476;4.840;2023-07-24T10:25:17;21.70;31.50
77039;DHT22;65970;50.476;4.840;2023-07-24T10:30:28;21.70;31.60
77039;DHT22;65970;50.476;4.840;2023-07-24T10:35:36;21.80;31.90
77039;DHT22;65970;50.476;4.840;2023-07-24T10:40:38;21.80;30.60
77039;DHT22;65970;50.476;4.840;2023-07-24T10:45:41;21.90;30.30
77039;DHT22;65970;50.476;4.840;2023-07-24T10:50:43;22.00;30.30
77039;DHT22;65970;50.476;4.840;2023-07-24T10:55:45;22.10;30.10
77039;DHT22;65970;50.476;4.840;2023-07-24T11:00:46;22.10;29.20
77039;DHT22;65970;50.476;4.840;2023-07-24T11:05:47;22.10;29.70
77039;DHT22;65970;50.476;4.840;2023-07-24T11:10:48;22.10;30.10
77039;DHT22;65970;50.476;4.840;2023-07-24T11:15:49;22.10;30.00
77039;DHT22;65970;50.476;4.840;2023-07-24T11:20:52;22.10;30.30
77039;DHT22;65970;50.476;4.840;2023-07-24T11:25:53;22.10;30.00
77039;DHT22;65970;50.476;4.840;2023-07-24T11:30:54;22.00;29.70
77039;DHT22;65970;50.476;4.840;2023-07-24T11:35:54;22.00;30.10
77039;DHT22;65970;50.476;4.840;2023-07-24T11:40:55;22.00;30.40
77039;DHT22;65970;50.476;4.840;2023-07-24T11:45:56;21.90;30.50
77039;DHT22;65970;50.476;4.840;2023-07-24T11:50:56;21.90;30.60
77039;DHT22;65970;50.476;4.840;2023-07-24T11:55:58;21.90;31.00
77039;DHT22;65970;50.476;4.840;2023-07-24T12:00:59;21.80;30.80
77039;DHT22;65970;50.476;4.840;2023-07-24T12:06:00;21.80;30.70
77039;DHT22;65970;50.476;4.840;2023-07-24T12:11:01;21.80;30.70
77039;DHT22;65970;50.476;4.840;2023-07-24T12:16:02;21.70;30.70
77039;DHT22;65970;50.476;4.840;2023-07-24T12:21:02;21.70;31.00
77039;DHT22;65970;50.476;4.840;2023-07-24T12:26:04;21.70;30.90
77039;DHT22;65970;50.476;4.840;2023-07-24T12:31:04;21.70;31.00
77039;DHT22;65970;50.476;4.840;2023-07-24T12:36:05;21.80;31.00
77039;DHT22;65970;50.476;4.840;2023-07-24T12:41:05;21.80;30.60
77039;DHT22;65970;50.476;4.840;2023-07-24T12:46:06;21.90;30.60
77039;DHT22;65970;50.476;4.840;2023-07-24T12:51:06;21.90;30.40
77039;DHT22;65970;50.476;4.840;2023-07-24T12:56:07;22.00;30.10
77039;DHT22;65970;50.476;4.840;2023-07-24T13:01:08;22.00;30.30
77039;DHT22;65970;50.476;4.840;2023-07-24T13:06:08;22.10;29.90
77039;DHT22;65970;50.476;4.840;2023-07-24T13:11:09;22.10;29.50
77039;DHT22;65970;50.476;4.840;2023-07-24T13:16:09;22.20;29.60
77039;DHT22;65970;50.476;4.840;2023-07-24T13:21:10;22.20;29.20
77039;DHT22;65970;50.476;4.840;2023-07-24T13:26:12;22.20;28.70
77039;DHT22;65970;50.476;4.840;2023-07-24T13:31:20;22.20;29.10
77039;DHT22;65970;50.476;4.840;2023-07-24T13:36:21;22.30;29.20
77039;DHT22;65970;50.476;4.840;2023-07-24T13:41:21;22.30;29.00
77039;DHT22;65970;50.476;4.840;2023-07-24T13:46:22;22.20;29.00
77039;DHT22;65970;50.476;4.840;2023-07-24T13:51:22;22.30;28.80
77039;DHT22;65970;50.476;4.840;2023-07-24T13:56:23;22.20;29.00
77039;DHT22;65970;50.476;4.840;2023-07-24T14:01:23;22.30;29.30
77039;DHT22;65970;50.476;4.840;2023-07-24T14:06:24;22.20;29.10
77039;DHT22;65970;50.476;4.840;2023-07-24T14:11:24;22.30;29.10
77039;DHT22;65970;50.476;4.840;2023-07-24T14:16:25;22.30;29.20
77039;DHT22;65970;50.476;4.840;2023-07-24T14:21:26;22.30;29.20
77039;DHT22;65970;50.476;4.840;2023-07-24T14:26:26;22.40;29.00
77039;DHT22;65970;50.476;4.840;2023-07-24T14:31:27;22.40;29.00
77039;DHT22;65970;50.476;4.840;2023-07-24T14:36:27;22.40;29.10
77039;DHT22;65970;50.476;4.840;2023-07-24T14:41:28;22.40;29.10
77039;DHT22;65970;50.476;4.840;2023-07-24T14:46:28;22.50;29.00
77039;DHT22;65970;50.476;4.840;2023-07-24T14:51:29;22.60;29.20
77039;DHT22;65970;50.476;4.840;2023-07-24T14:56:29;22.60;29.00
77039;DHT22;65970;50.476;4.840;2023-07-24T15:01:30;22.70;28.70
77039;DHT22;65970;50.476;4.840;2023-07-24T15:06:31;22.80;28.10
77039;DHT22;65970;50.476;4.840;2023-07-24T15:11:31;22.80;28.10
77039;DHT22;65970;50.476;4.840;2023-07-24T15:16:32;22.80;28.30
77039;DHT22;65970;50.476;4.840;2023-07-24T15:21:32;22.90;28.20
77039;DHT22;65970;50.476;4.840;2023-07-24T15:26:33;22.90;28.00
77039;DHT22;65970;50.476;4.840;2023-07-24T15:31:33;23.00;28.00
77039;DHT22;65970;50.476;4.840;2023-07-24T15:36:35;23.00;27.80
77039;DHT22;65970;50.476;4.840;2023-07-24T15:41:35;23.10;27.50
77039;DHT22;65970;50.476;4.840;2023-07-24T15:46:36;23.10;27.50
77039;DHT22;65970;50.476;4.840;2023-07-24T15:51:36;23.10;27.40
77039;DHT22;65970;50.476;4.840;2023-07-24T15:56:40;23.10;27.30
77039;DHT22;65970;50.476;4.840;2023-07-24T16:01:41;23.10;27.20
77039;DHT22;65970;50.476;4.840;2023-07-24T16:06:41;23.10;27.20
77039;DHT22;65970;50.476;4.840;2023-07-24T16:11:42;23.10;27.30
77039;DHT22;65970;50.476;4.840;2023-07-24T16:16:42;23.10;27.30
77039;DHT22;65970;50.476;4.840;2023-07-24T16:21:45;23.10;27.30
77039;DHT22;65970;50.476;4.840;2023-07-24T16:26:46;23.00;27.20
77039;DHT22;65970;50.476;4.840;2023-07-24T16:31:47;23.10;27.20
77039;DHT22;65970;50.476;4.840;2023-07-24T16:36:47;23.10;27.30
77039;DHT22;65970;50.476;4.840;2023-07-24T16:41:48;23.00;27.10
77039;DHT22;65970;50.476;4.840;2023-07-24T16:46:49;23.00;26.90
77039;DHT22;65970;50.476;4.840;2023-07-24T16:51:49;23.00;27.00
77039;DHT22;65970;50.476;4.840;2023-07-24T16:56:50;23.00;27.00
77039;DHT22;65970;50.476;4.840;2023-07-24T17:01:50;23.00;26.80
77039;DHT22;65970;50.476;4.840;2023-07-24T17:06:51;23.00;26.90
77039;DHT22;65970;50.476;4.840;2023-07-24T17:11:51;23.00;26.70
77039;DHT22;65970;50.476;4.840;2023-07-24T17:16:52;23.00;26.60
77039;DHT22;65970;50.476;4.840;2023-07-24T17:21:52;23.00;26.80
77039;DHT22;65970;50.476;4.840;2023-07-24T17:26:53;23.00;26.50
77039;DHT22;65970;50.476;4.840;2023-07-24T17:31:53;22.90;26.60
77039;DHT22;65970;50.476;4.840;2023-07-24T17:36:54;22.90;26.60
77039;DHT22;65970;50.476;4.840;2023-07-24T17:41:54;22.90;26.70
77039;DHT22;65970;50.476;4.840;2023-07-24T17:46:55;22.90;26.70
77039;DHT22;65970;50.476;4.840;2023-07-24T17:51:56;22.80;26.80
77039;DHT22;65970;50.476;4.840;2023-07-24T17:56:56;22.80;26.90
77039;DHT22;65970;50.476;4.840;2023-07-24T18:01:57;22.70;26.90
77039;DHT22;65970;50.476;4.840;2023-07-24T18:06:57;22.70;26.90
77039;DHT22;65970;50.476;4.840;2023-07-24T18:11:58;22.60;27.10
77039;DHT22;65970;50.476;4.840;2023-07-24T18:16:58;22.60;27.30
77039;DHT22;65970;50.476;4.840;2023-07-24T18:21:59;22.50;27.50
77039;DHT22;65970;50.476;4.840;2023-07-24T18:26:59;22.50;27.80
77039;DHT22;65970;50.476;4.840;2023-07-24T18:32:00;22.50;28.00
77039;DHT22;65970;50.476;4.840;2023-07-24T18:37:00;22.40;28.40
77039;DHT22;65970;50.476;4.840;2023-07-24T18:42:01;22.40;28.50
77039;DHT22;65970;50.476;4.840;2023-07-24T18:47:01;22.30;28.80
77039;DHT22;65970;50.476;4.840;2023-07-24T18:52:02;22.30;29.00
77039;DHT22;65970;50.476;4.840;2023-07-24T18:57:03;22.30;29.20
77039;DHT22;65970;50.476;4.840;2023-07-24T19:02:04;22.30;29.40
77039;DHT22;65970;50.476;4.840;2023-07-24T19:07:05;22.20;29.50
77039;DHT22;65970;50.476;4.840;2023-07-24T19:12:06;22.20;29.60
77039;DHT22;65970;50.476;4.840;2023-07-24T19:17:07;22.10;29.80
77039;DHT22;65970;50.476;4.840;2023-07-24T19:22:07;22.10;30.00
77039;DHT22;65970;50.476;4.840;2023-07-24T19:27:08;22.10;30.00
77039;DHT22;65970;50.476;4.840;2023-07-24T19:32:08;22.10;30.00
77039;DHT22;65970;50.476;4.840;2023-07-24T19:37:09;22.10;30.00
77039;DHT22;65970;50.476;4.840;2023-07-24T19:42:10;22.00;29.90
77039;DHT22;65970;50.476;4.840;2023-07-24T19:47:10;22.00;30.00
77039;DHT22;65970;50.476;4.840;2023-07-24T19:52:11;22.00;30.00
77039;DHT22;65970;50.476;4.840;2023-07-24T19:57:11;21.90;30.10
77039;DHT22;65970;50.476;4.840;2023-07-24T20:02:12;21.90;30.30
77039;DHT22;65970;50.476;4.840;2023-07-24T20:07:13;21.90;30.30
77039;DHT22;65970;50.476;4.840;2023-07-24T20:12:13;21.80;30.20
77039;DHT22;65970;50.476;4.840;2023-07-24T20:17:14;21.80;30.40
77039;DHT22;65970;50.476;4.840;2023-07-24T20:22:14;21.80;30.40
77039;DHT22;65970;50.476;4.840;2023-07-24T20:27:15;21.70;30.50
77039;DHT22;65970;50.476;4.840;2023-07-24T20:32:15;21.70;30.40
77039;DHT22;65970;50.476;4.840;2023-07-24T20:37:16;21.70;30.40
77039;DHT22;65970;50.476;4.840;2023-07-24T20:42:16;21.60;30.20
77039;DHT22;65970;50.476;4.840;2023-07-24T20:47:17;21.60;30.00
77039;DHT22;65970;50.476;4.840;2023-07-24T20:52:17;21.60;30.00
77039;DHT22;65970;50.476;4.840;2023-07-24T20:57:18;21.50;29.80
77039;DHT22;65970;50.476;4.840;2023-07-24T21:02:18;21.50;29.80
77039;DHT22;65970;50.476;4.840;2023-07-24T21:07:19;21.40;29.60
77039;DHT22;65970;50.476;4.840;2023-07-24T21:12:20;21.40;29.70
77039;DHT22;65970;50.476;4.840;2023-07-24T21:17:20;21.30;29.80
77039;DHT22;65970;50.476;4.840;2023-07-24T21:22:21;21.30;29.70
77039;DHT22;65970;50.476;4.840;2023-07-24T21:27:21;21.30;29.70
77039;DHT22;65970;50.476;4.840;2023-07-24T21:32:22;21.20;29.70
77039;DHT22;65970;50.476;4.840;2023-07-24T21:37:22;21.20;29.80
77039;DHT22;65970;50.476;4.840;2023-07-24T21:42:23;21.20;30.00
77039;DHT22;65970;50.476;4.840;2023-07-24T21:47:23;21.20;30.00
77039;DHT22;65970;50.476;4.840;2023-07-24T21:52:24;21.10;30.00
77039;DHT22;65970;50.476;4.840;2023-07-24T21:57:26;21.10;30.10
77039;DHT22;65970;50.476;4.840;2023-07-24T22:02:26;21.10;30.20
77039;DHT22;65970;50.476;4.840;2023-07-24T22:07:27;21.00;30.00
77039;DHT22;65970;50.476;4.840;2023-07-24T22:12:27;21.00;30.10
77039;DHT22;65970;50.476;4.840;2023-07-24T22:17:28;21.00;30.00
77039;DHT22;65970;50.476;4.840;2023-07-24T22:22:28;20.90;30.20
77039;DHT22;65970;50.476;4.840;2023-07-24T22:27:29;20.90;30.10
77039;DHT22;65970;50.476;4.840;2023-07-24T22:32:30;20.90;30.10
77039;DHT22;65970;50.476;4.840;2023-07-24T22:37:30;20.90;30.20
77039;DHT22;65970;50.476;4.840;2023-07-24T22:42:31;20.90;30.20
77039;DHT22;65970;50.476;4.840;2023-07-24T22:47:31;20.80;30.10
77039;DHT22;65970;50.476;4.840;2023-07-24T22:52:32;20.80;30.20
77039;DHT22;65970;50.476;4.840;2023-07-24T22:57:32;20.80;30.20
77039;DHT22;65970;50.476;4.840;2023-07-24T23:02:33;20.70;30.20
77039;DHT22;65970;50.476;4.840;2023-07-24T23:07:33;20.70;30.20
77039;DHT22;65970;50.476;4.840;2023-07-24T23:12:34;20.70;30.20
77039;DHT22;65970;50.476;4.840;2023-07-24T23:17:34;20.70;30.20
77039;DHT22;65970;50.476;4.840;2023-07-24T23:22:35;20.60;30.20
77039;DHT22;65970;50.476;4.840;2023-07-24T23:27:35;20.60;30.20
77039;DHT22;65970;50.476;4.840;2023-07-24T23:32:36;20.60;30.20
77039;DHT22;65970;50.476;4.840;2023-07-24T23:37:37;20.60;30.10
77039;DHT22;65970;50.476;4.840;2023-07-24T23:42:37;20.60;30.10
77039;DHT22;65970;50.476;4.840;2023-07-24T23:47:38;20.50;30.10
77039;DHT22;65970;50.476;4.840;2023-07-24T23:52:38;20.50;30.20
77039;DHT22;65970;50.476;4.840;2023-07-24T23:57:39;20.40;30.10
